Date,TemperatureHighF,TemperatureAvgF,TemperatureLowF,DewpointHighF,DewpointAvgF,DewpointLowF,HumidityHigh,HumidityAvg,HumidityLow,PressureMaxIn,PressureMinIn,WindSpeedMaxMPH,WindSpeedAvgMPH,GustSpeedMaxMPH,PrecipitationSumIn
2014-1-1,51.3,38.0,24.3,32.0,24.0,16.7,79,59,38,29.65,29.32,16,4,20,0.04
2014-1-2,40.6,27.4,17.6,36.3,18.7,5.1,91,70,52,29.80,29.26,38,12,47,0.00
2014-1-3,29.5,20.5,11.1,11.1,5.9,0.3,71,53,43,29.91,29.59,20,5,25,0.00
2014-1-4,46.2,35.4,23.2,26.6,14.8,7.0,52,43,33,29.59,29.35,25,9,31,0.00
2014-1-5,48.0,34.9,11.8,44.5,26.7,3.5,90,73,53,29.59,28.97,33,6,40,0.55
2014-1-6,11.8,6.2,2.8,3.5,-1.8,-5.0,69,69,69,29.91,29.59,0,0,1,0.00
2014-1-7,23.7,13.5,2.7,5.4,0.1,-5.2,69,56,42,29.91,29.71,0,0,1,0.00
2014-1-8,37.2,28.9,19.6,23.2,11.6,2.6,70,48,40,29.83,29.74,12,2,16,0.00
2014-1-9,36.5,33.8,30.7,29.2,24.0,19.5,80,67,54,29.80,29.56,22,5,27,0.12
2014-1-10,51.4,45.3,34.9,47.2,40.3,28.1,89,83,75,29.56,29.00,22,8,28,0.91
2014-1-11,52.0,44.2,36.9,50.3,37.5,29.4,95,78,59,29.32,28.97,18,8,23,0.16
2014-1-12,57.6,44.1,30.0,40.8,30.8,25.2,86,63,40,29.47,29.26,16,6,21,0.00
2014-1-13,52.7,48.8,39.9,47.7,41.0,28.4,97,76,43,29.26,29.12,20,6,25,0.28
2014-1-14,56.5,40.5,30.2,48.7,33.5,24.0,98,79,39,29.44,29.21,22,4,28,0.00
2014-1-15,34.0,27.1,20.3,24.9,13.1,9.0,69,55,47,29.53,29.44,18,4,23,0.00
2014-1-16,47.1,33.5,20.3,26.0,19.1,10.1,73,56,40,29.44,29.12,20,6,25,0.00
2014-1-17,37.4,25.9,16.2,27.7,10.4,3.5,73,52,40,29.53,29.18,28,8,34,0.00
2014-1-18,45.1,32.1,16.0,24.5,16.5,4.9,70,53,39,29.50,29.12,28,6,34,0.00
2014-1-19,46.8,38.1,31.5,24.2,21.3,18.1,65,51,40,29.50,29.23,20,8,25,0.00
2014-1-20,58.5,44.7,36.0,29.9,24.1,20.1,55,45,32,29.32,29.23,20,6,25,0.00
2014-1-21,38.3,24.2,12.9,28.0,9.5,-1.0,71,53,43,29.62,29.23,48,14,59,0.00
2014-1-22,30.9,21.2,13.5,10.9,6.7,1.1,61,53,42,29.59,29.41,19,6,24,0.00
2014-1-23,22.1,14.3,5.2,11.3,-3.7,-14.4,63,44,37,30.09,29.56,30,12,36,0.00
2014-1-24,29.1,16.9,3.4,4.9,-4.3,-16.0,53,38,34,30.09,29.35,25,7,31,0.00
2014-1-25,48.7,35.5,22.6,23.0,12.3,1.4,46,38,34,29.35,29.18,23,9,29,0.00
2014-1-26,62.8,43.9,21.6,32.0,20.4,1.3,46,39,31,29.32,29.00,22,9,27,0.00
2014-1-27,44.2,22.0,13.8,27.0,0.4,-7.1,53,38,35,29.80,29.15,46,17,56,0.00
2014-1-28,19.6,11.9,5.0,-3.2,-9.4,-16.1,39,37,35,29.83,29.71,26,9,32,0.00
2014-1-29,31.1,16.5,3.0,5.4,-5.3,-17.9,51,37,33,29.80,29.62,17,3,22,0.00
2014-1-30,41.2,27.7,15.8,12.9,5.1,-2.6,46,38,31,29.62,29.35,23,7,29,0.00
2014-1-31,42.8,37.6,30.0,35.5,18.8,5.1,79,49,33,29.50,29.32,15,5,19,0.00
2014-2-1,64.8,53.3,42.1,44.3,36.1,26.3,84,53,41,29.32,29.23,20,7,25,0.00
2014-2-2,43.2,32.5,26.6,38.6,29.6,24.5,92,89,82,29.56,29.29,28,10,34,0.67
2014-2-3,28.0,24.6,20.8,25.8,22.5,18.6,92,91,90,29.71,29.47,0,0,1,0.00
2014-2-4,32.5,30.1,25.3,32.5,28.8,22.9,100,95,91,29.62,29.15,0,0,1,0.00
2014-2-5,32.2,26.3,20.7,32.2,24.9,18.5,100,94,88,29.85,29.21,0,0,1,0.00
2014-2-6,20.7,17.8,12.4,18.5,14.2,7.7,91,86,81,29.91,29.80,0,0,1,0.00
2014-2-7,21.7,15.8,8.8,16.2,9.2,4.2,81,75,64,29.85,29.68,0,0,1,0.00
2014-2-8,32.0,27.5,21.7,28.5,23.0,16.2,88,83,79,29.68,29.50,0,0,1,0.04
2014-2-9,33.8,31.2,25.9,31.4,27.6,20.6,93,86,79,29.65,29.47,0,0,1,0.00
2014-2-10,25.9,20.4,11.7,20.6,11.9,0.8,84,70,54,29.77,29.59,0,0,1,0.00
2014-2-11,25.3,16.3,7.9,7.9,3.5,-2.8,61,57,47,29.83,29.65,9,1,12,0.00
2014-2-12,38.5,26.4,16.0,19.5,13.1,6.1,69,57,43,29.65,29.32,13,5,17,0.04
2014-2-13,45.7,29.1,17.6,22.4,15.3,8.5,72,57,38,29.32,29.15,18,5,23,0.00
2014-2-14,40.6,34.1,25.0,36.0,26.4,13.8,91,74,57,29.35,28.97,32,9,39,0.20
2014-2-15,33.6,25.4,16.9,20.8,13.4,7.5,66,60,53,29.56,29.35,28,6,35,0.00
2014-2-16,43.5,34.5,26.4,27.0,22.6,15.7,75,62,50,29.59,29.38,19,8,24,0.00
2014-2-17,55.2,40.4,30.2,49.8,31.9,21.8,88,72,62,29.53,29.18,27,8,33,0.08
2014-2-18,62.8,48.0,27.9,51.1,32.6,21.3,80,58,35,29.50,29.21,22,6,28,0.00
2014-2-19,62.1,56.2,48.7,53.5,33.4,29.6,82,43,34,29.41,29.21,16,6,21,0.00
2014-2-20,69.8,59.9,40.6,57.7,47.4,25.9,78,64,45,29.23,28.94,36,11,44,0.16
2014-2-21,55.6,44.3,36.9,27.5,22.8,19.0,64,44,29,29.41,29.23,20,8,28,0.00
2014-2-22,68.4,50.8,38.1,31.7,24.1,18.0,45,36,25,29.47,29.29,13,5,17,0.00
2014-2-23,49.8,40.5,29.7,31.4,24.6,14.2,69,53,39,29.62,29.32,31,13,38,0.00
2014-2-24,45.1,34.0,24.3,17.1,13.4,9.7,58,43,32,29.71,29.53,22,10,28,0.00
2014-2-25,43.2,35.2,28.8,18.0,14.6,10.6,51,43,35,29.59,29.50,24,11,30,0.00
2014-2-26,30.9,23.8,17.6,13.1,4.8,-0.4,53,44,34,29.62,29.38,33,10,40,0.00
2014-2-27,40.5,28.3,18.9,13.6,7.2,0.8,56,41,32,29.47,29.35,23,8,29,0.00
2014-2-28,53.4,36.6,21.7,22.6,12.0,0.9,44,36,29,29.50,29.35,19,7,24,0.00
2014-3-1,57.6,48.9,41.2,33.9,30.7,22.4,61,50,40,29.53,29.41,12,3,16,0.00
2014-3-2,50.7,31.9,18.7,32.8,25.6,15.2,89,79,49,29.53,29.38,26,4,32,0.31
2014-3-3,21.6,16.4,10.8,17.3,12.3,6.4,86,84,82,29.74,29.47,0,0,1,0.00
2014-3-4,32.7,23.2,11.3,31.4,20.1,6.9,98,88,79,29.71,29.53,0,0,1,0.08
2014-3-5,35.4,32.6,30.2,35.4,32.5,30.1,100,100,97,29.59,29.50,15,3,19,0.00
2014-3-6,46.2,35.8,28.6,31.5,26.0,20.7,100,71,44,29.56,29.41,15,7,19,0.00
2014-3-7,54.1,38.2,25.3,31.3,24.6,19.4,82,60,39,29.44,29.35,9,1,12,0.00
2014-3-8,57.0,43.1,30.6,39.9,32.7,22.8,79,67,51,29.62,29.38,19,6,24,0.00
2014-3-9,53.8,40.8,31.3,33.7,27.8,23.3,80,61,41,29.68,29.47,23,6,29,0.00
2014-3-10,67.8,50.7,36.7,43.5,36.6,29.0,84,61,37,29.47,29.21,17,7,22,0.00
2014-3-11,77.9,61.4,46.8,49.0,44.7,38.6,81,57,34,29.21,28.97,18,6,22,0.00
2014-3-18,59.7,39.7,28.6,40.5,30.1,23.4,84,70,47,29.29,29.09,31,5,38,0.00
2014-3-19,60.6,51.7,39.7,44.2,35.7,25.9,72,56,38,29.50,29.18,23,10,32,0.00
2014-3-20,64.8,46.6,29.3,38.7,27.6,23.3,82,52,27,29.56,29.41,15,3,19,0.00
2014-3-21,70.7,54.8,39.7,33.4,28.1,22.0,51,37,25,29.41,29.26,20,5,25,0.00
2014-3-22,58.3,52.2,44.6,35.2,29.4,23.7,51,42,32,29.56,29.29,26,12,32,0.00
2014-3-23,48.6,41.5,33.6,27.4,20.9,13.0,54,44,33,29.71,29.56,34,15,41,0.00
2014-3-24,51.3,38.6,26.6,20.9,15.2,10.2,53,39,29,29.71,29.47,20,9,25,0.00
2014-3-25,43.3,36.1,29.7,28.9,16.6,8.2,80,46,32,29.65,29.44,38,9,46,0.00
2014-3-26,53.2,37.6,21.9,21.8,13.9,5.9,53,38,29,29.77,29.53,16,4,21,0.00
2014-3-27,67.5,52.2,44.2,45.3,29.0,16.3,74,43,29,29.53,29.18,32,12,40,0.31
2014-3-28,66.9,59.0,50.9,56.5,49.9,45.2,86,72,53,29.38,29.18,26,8,32,0.51
2014-3-29,50.9,45.0,39.9,46.0,38.0,28.6,95,77,59,29.62,29.26,30,14,37,0.59
2014-3-30,62.8,45.3,31.8,35.0,29.9,26.9,85,58,30,29.68,29.50,13,2,17,0.00
2014-3-31,39.7,38.7,37.9,29.7,29.6,28.1,70,70,64,29.50,29.26,20,7,26,0.00
2014-4-1,38.7,38.7,38.7,29.7,29.7,29.7,70,70,70,29.44,29.32,13,5,17,0.00
2014-4-2,65.3,39.6,38.7,61.4,30.8,29.7,90,71,70,29.38,29.26,49,6,60,1.65
2014-8-8,74.8,72.2,69.1,71.8,69.5,66.2,93,91,82,29.35,29.26,9,1,14,0.31
2014-8-9,86.2,76.6,72.3,72.1,69.7,67.0,94,81,54,29.38,29.26,12,1,16,0.00
2014-8-10,84.4,79.7,76.3,68.0,67.4,67.0,73,67,58,29.32,29.24,11,2,15,0.00
2014-8-11,84.4,76.1,72.0,73.2,71.6,68.0,93,87,58,29.26,29.18,16,2,21,0.31
2014-8-12,81.3,73.9,67.1,73.2,58.0,48.7,93,61,36,29.35,29.20,20,5,25,0.00
2014-8-13,80.8,69.1,57.4,57.5,51.8,48.3,82,57,33,29.41,29.32,18,3,22,0.00
2014-8-14,85.6,63.7,57.4,57.8,52.5,49.6,84,70,31,29.44,29.32,16,1,21,0.00
2014-8-15,87.1,73.3,59.4,65.7,56.2,51.5,93,60,32,29.41,29.29,12,2,16,0.00
2014-8-16,82.6,75.0,65.8,62.8,60.0,56.4,86,62,43,29.35,29.23,9,1,12,0.00
2014-8-17,86.5,76.4,70.7,75.5,68.7,61.8,94,78,62,29.26,29.15,10,1,13,0.39
2014-8-18,86.4,75.7,69.4,74.7,68.6,63.3,99,81,49,29.23,29.15,9,1,12,0.00
2014-8-19,91.2,78.9,71.4,77.5,69.9,60.5,99,77,45,29.21,29.12,13,1,17,0.00
2014-8-20,95.0,82.7,74.7,76.6,69.2,64.2,95,67,38,29.38,29.18,13,3,17,0.00
2014-8-21,96.3,82.0,71.8,71.7,66.3,58.7,92,63,31,29.41,29.32,12,2,16,0.00
2014-8-22,94.8,83.1,74.5,73.0,68.8,63.9,90,66,37,29.38,29.26,12,2,16,0.00
2014-8-23,96.8,80.9,75.0,73.9,69.0,63.8,89,69,38,29.32,29.23,15,1,19,0.00
2014-8-24,94.8,77.6,70.5,75.4,69.9,65.2,97,80,39,29.32,29.23,16,2,20,0.12
2014-8-25,94.5,81.6,70.7,74.2,66.2,58.6,93,64,32,29.35,29.29,14,2,18,0.12
2014-8-26,94.6,80.2,70.3,74.4,66.8,58.1,92,67,32,29.44,29.32,16,2,20,0.12
2014-8-27,94.1,78.8,69.4,75.2,66.0,59.1,93,69,32,29.44,29.32,18,2,22,0.12
2014-8-28,90.9,74.9,69.6,74.7,67.8,62.4,92,80,40,29.35,29.29,16,1,21,0.12
2014-8-29,94.3,79.2,69.3,74.5,63.0,53.3,96,64,29,29.32,29.23,12,1,16,0.00
2014-8-30,84.9,74.5,70.7,71.2,66.6,61.6,94,77,55,29.35,29.32,14,1,18,0.59
2014-8-31,86.9,75.2,70.9,75.9,70.1,64.2,98,86,48,29.35,29.29,11,1,14,0.83
2014-9-1,87.1,78.1,72.7,73.4,69.7,64.2,96,77,50,29.35,29.23,15,2,19,0.00
2014-9-2,87.6,79.1,70.9,71.4,68.0,59.7,87,70,44,29.32,29.23,12,2,16,0.12
2014-9-3,90.3,76.3,67.3,75.2,65.4,54.7,98,74,33,29.38,29.29,12,1,16,0.00
2014-9-4,92.5,78.1,66.9,73.0,64.2,58.2,95,67,34,29.41,29.35,9,1,12,0.00
2014-9-5,93.0,76.6,68.5,72.1,66.6,61.1,93,74,39,29.47,29.32,22,1,27,0.04
2014-9-6,78.8,72.5,66.6,72.5,65.1,57.5,93,78,61,29.44,29.35,21,8,26,0.79
2014-9-7,80.6,71.0,64.6,62.8,56.4,50.3,89,63,38,29.44,29.35,18,7,22,0.00
2014-9-8,85.1,69.5,58.1,59.7,52.0,43.0,86,58,25,29.41,29.32,12,2,16,0.00
2014-9-9,87.8,73.3,59.9,67.3,58.4,54.6,92,64,35,29.38,29.23,11,2,15,0.00
2014-9-10,88.7,79.7,72.7,70.5,67.4,63.4,80,67,49,29.23,29.12,14,3,18,0.00
2014-9-11,78.6,68.1,61.2,70.1,65.4,58.5,97,91,67,29.44,29.21,20,6,25,0.71
2014-9-12,62.6,60.8,58.6,58.7,56.9,53.7,92,87,81,29.50,29.41,22,9,28,0.00
2014-9-13,66.2,57.9,51.8,53.8,45.7,39.2,86,66,39,29.65,29.50,24,9,30,0.00
2014-9-14,75.2,60.6,50.0,51.4,45.6,40.9,85,62,31,29.59,29.50,16,3,21,0.00
2014-9-15,73.9,63.8,55.6,59.3,53.3,48.3,84,70,47,29.50,29.38,8,0,11,0.00
2014-9-16,72.5,64.8,54.9,61.2,53.0,45.9,86,67,43,29.50,29.38,20,7,25,0.04
2014-9-17,69.8,59.7,48.4,58.6,50.4,45.0,93,73,47,29.41,29.26,11,2,15,0.00
2014-9-18,75.4,65.7,57.9,59.6,54.2,49.9,90,69,43,29.35,29.26,14,2,18,0.00
2014-9-19,82.9,68.2,56.5,57.0,53.1,49.4,81,61,35,29.41,29.32,11,2,15,0.00
2014-9-20,88.3,72.2,60.8,66.8,60.5,56.3,93,69,39,29.41,27.94,11,1,15,0.00
2014-9-21,84.0,72.6,61.7,67.6,55.5,39.9,85,59,23,29.41,29.26,23,5,29,0.00
2014-9-22,74.7,62.5,53.2,50.7,42.5,35.7,77,51,26,29.56,29.41,23,7,29,0.00
2014-9-23,77.2,62.4,48.6,46.5,41.2,37.8,75,49,26,29.62,29.50,16,4,21,0.00
2014-9-24,85.3,65.0,48.4,53.2,46.2,39.9,80,54,27,29.62,29.53,11,2,15,0.00
2014-9-25,85.5,67.0,53.1,61.3,49.7,46.0,87,58,30,29.59,29.47,15,2,19,0.00
2014-9-26,86.0,70.0,55.8,58.6,51.5,47.9,84,56,31,29.53,29.44,14,3,18,0.00
2014-9-27,87.3,72.1,61.9,59.8,54.5,49.5,76,57,30,29.47,29.38,14,2,18,0.00
2014-9-28,82.0,70.7,62.8,62.8,57.8,54.3,87,66,40,29.47,29.35,12,1,16,0.00
2014-9-29,88.2,70.5,58.8,65.8,53.4,47.3,91,60,26,29.35,29.26,16,2,21,0.00
2014-9-30,89.8,70.0,55.0,58.6,48.6,41.3,83,52,22,29.29,29.21,12,1,16,0.00
2014-10-1,91.4,72.1,57.9,60.1,51.9,48.2,83,54,24,29.29,29.21,12,1,16,0.00
2014-10-2,88.3,75.2,65.1,68.3,59.8,53.6,71,59,39,29.29,29.00,17,4,22,0.04
2014-10-3,74.8,53.0,45.0,64.8,37.7,29.6,94,57,44,29.38,29.00,23,5,29,0.59
2014-10-4,57.9,48.0,38.7,39.8,30.8,24.4,83,55,29,29.38,29.26,17,4,22,0.55
2014-10-5,76.6,57.4,38.3,46.3,37.7,29.8,76,51,27,29.26,29.06,17,3,22,0.55
2014-10-6,75.7,64.2,54.5,57.6,50.7,45.1,89,64,36,29.21,29.06,16,3,20,0.08
2014-10-7,79.7,67.6,59.2,64.9,58.7,54.2,93,75,47,29.29,29.15,13,3,17,0.39
2014-10-8,82.9,67.1,53.8,63.0,47.6,38.4,86,55,23,29.44,29.29,11,1,15,0.55
2014-10-9,83.5,68.9,59.2,64.4,56.9,48.4,90,67,43,29.44,29.29,19,3,24,0.55
2014-10-10,69.8,64.3,56.8,68.0,62.0,54.8,96,92,87,29.32,29.23,16,5,21,1.46
2014-10-11,56.8,55.0,52.5,54.8,53.1,51.1,96,93,90,29.44,29.29,18,7,23,0.55
2014-10-12,73.9,63.5,56.1,64.9,59.5,54.2,96,88,65,29.38,29.21,11,4,15,0.55
2014-10-13,79.2,68.4,62.8,64.8,62.1,54.6,93,82,50,29.23,28.94,22,7,27,1.81
2014-10-14,62.8,58.2,54.5,60.7,53.7,48.8,94,85,68,29.09,28.88,16,4,20,0.55
2014-10-15,56.7,54.2,53.1,54.8,50.6,49.3,95,88,81,29.21,29.06,13,2,17,0.16
2014-10-16,71.8,57.7,50.2,51.8,47.6,44.0,91,72,38,29.26,29.18,9,1,12,0.00
2014-10-17,78.4,64.3,53.8,51.5,44.7,38.3,81,52,28,29.29,29.12,16,4,21,0.00
2014-10-18,65.1,55.7,47.5,45.4,39.0,34.2,82,55,37,29.50,29.26,20,6,26,0.00
2014-10-19,64.0,51.3,40.6,45.6,38.8,35.3,85,65,38,29.59,29.38,15,2,19,0.00
2014-10-20,72.9,57.8,46.2,48.6,44.8,40.7,86,65,36,29.38,29.26,12,2,16,0.00
2014-10-21,73.2,58.9,46.9,49.8,41.3,35.1,88,57,28,29.47,29.32,20,5,25,0.00
2014-10-22,63.9,52.3,43.3,40.8,35.5,32.5,76,54,35,29.62,29.47,20,5,25,0.00
2014-10-23,61.0,50.6,40.1,42.4,37.5,34.1,80,63,39,29.56,29.44,13,2,17,0.00
2014-10-24,71.4,54.1,41.2,50.2,42.7,37.1,90,68,39,29.47,29.38,12,1,16,0.00
2014-10-25,80.4,63.9,50.0,55.1,52.0,44.3,86,68,40,29.38,29.32,13,2,17,0.00
2014-10-26,86.2,66.8,54.1,63.6,54.6,50.7,93,69,34,29.35,29.21,11,1,15,0.00
2014-10-27,83.7,71.1,63.7,60.2,52.2,44.0,85,56,27,29.29,29.18,15,3,19,0.00
2014-10-28,67.8,60.0,51.3,61.5,51.5,43.6,89,74,53,29.44,29.23,20,3,26,0.55
2014-10-29,67.6,53.7,43.7,54.8,39.1,28.1,95,63,28,29.50,29.41,15,3,19,0.00
2014-10-30,66.0,50.2,36.1,44.4,34.0,28.1,85,57,28,29.50,29.32,13,1,17,0.00
2014-10-31,52.3,47.6,38.3,45.1,31.6,16.4,80,56,31,29.59,29.32,38,10,47,0.00
2014-11-1,50.9,39.3,32.0,22.6,18.0,15.1,57,42,30,29.71,29.56,26,10,32,0.00
2014-11-2,59.2,40.7,26.1,29.4,21.7,17.7,77,51,26,29.80,29.65,13,3,17,0.00
2014-11-3,70.5,58.0,39.7,32.1,27.7,22.2,49,32,24,29.71,29.53,12,2,16,0.00
2014-11-4,67.8,57.2,50.9,50.2,38.8,26.3,84,52,35,29.56,29.41,15,3,19,0.24
2014-11-5,54.9,53.4,51.4,51.8,50.1,48.0,95,88,85,29.53,29.41,16,3,20,0.16
2014-11-6,57.2,50.0,46.9,51.8,44.7,30.4,95,84,37,29.41,29.35,22,7,28,0.04
2014-11-8,42.6,38.3,34.7,27.6,26.8,25.4,75,63,54,29.41,29.38,6,1,8,0.04
2014-11-9,59.7,42.9,30.2,41.2,28.3,25.1,88,60,30,29.41,29.26,12,1,16,0.00
2014-11-10,70.3,54.1,37.6,39.3,32.6,27.6,71,47,27,29.26,29.06,19,6,24,0.00
2014-11-11,61.3,49.3,34.3,52.3,36.6,21.9,82,63,40,29.50,29.15,23,9,29,0.04
2014-11-12,36.1,33.9,31.3,22.9,19.2,15.7,62,55,50,29.68,29.50,22,11,28,0.00
2014-11-13,35.1,30.1,24.4,15.9,10.4,5.0,52,43,34,29.74,29.65,26,12,32,0.00
2014-11-14,36.7,26.4,19.2,14.0,8.9,5.5,63,48,34,29.77,29.68,19,4,24,0.00
2014-11-15,40.5,31.8,21.2,21.1,13.4,9.2,64,48,32,29.74,29.50,12,4,16,0.00
2014-11-16,39.4,35.8,33.3,31.7,28.7,21.1,85,75,62,29.53,29.23,18,6,23,0.04
2014-11-17,33.3,27.5,21.7,29.2,16.7,3.0,88,66,44,29.59,29.23,28,5,35,0.00
2014-11-18,28.6,20.9,14.5,9.7,3.0,-1.6,56,46,36,29.74,29.59,13,5,17,0.00
2014-11-19,53.6,34.4,23.0,24.8,16.0,9.6,56,48,30,29.59,29.35,29,7,36,0.00
2014-11-20,45.1,32.6,22.5,17.6,14.5,11.7,64,48,33,29.62,29.50,11,2,15,0.00
2014-11-21,49.3,40.7,28.4,23.6,18.8,13.6,58,42,32,29.74,29.59,18,6,23,0.00
2014-11-22,68.2,56.3,48.7,35.2,31.3,24.5,55,39,27,29.62,29.29,15,5,19,0.00
2014-11-23,59.7,56.7,52.0,57.1,46.8,33.9,92,71,48,29.29,28.64,20,8,25,0.87
2014-11-24,61.2,50.2,40.5,57.0,34.0,25.1,90,55,37,29.32,28.67,37,11,45,0.00
2014-11-25,40.5,38.7,37.6,25.1,24.5,24.2,58,57,54,29.53,29.32,9,9,12,0.00
2014-11-26,37.6,37.6,37.6,24.2,24.2,24.2,58,58,58,29.47,29.26,9,9,12,0.08
2014-11-27,67.1,55.9,37.6,54.5,43.0,24.2,67,62,58,29.80,29.41,9,9,12,0.00
2014-11-28,67.1,67.1,67.1,54.5,54.5,54.5,64,64,64,29.74,29.35,9,9,12,0.00
2014-11-29,67.1,67.1,67.1,54.5,54.5,54.5,64,64,64,29.35,29.18,9,9,12,0.00
2014-11-30,67.1,67.1,67.1,54.5,54.5,54.5,64,64,64,29.35,29.21,9,9,12,0.00
2014-12-1,73.9,73.2,34.9,43.0,42.8,30.2,83,34,33,29.77,29.68,0,0,1,0.04
2014-12-2,73.9,73.9,73.9,43.0,43.0,43.0,33,33,33,29.68,29.53,0,0,1,0.00
2014-12-3,73.9,73.9,73.9,43.0,43.0,43.0,33,33,33,29.65,29.53,0,0,1,0.00
2014-12-4,73.9,73.9,73.9,43.0,43.0,43.0,33,33,33,29.62,29.50,0,0,1,0.04
2014-12-5,73.9,73.9,73.9,43.0,43.0,43.0,33,33,33,29.50,29.32,0,0,1,0.63
2014-12-6,73.9,73.9,73.9,43.0,43.0,43.0,33,33,33,29.83,29.32,0,0,1,0.00
2014-12-7,73.9,73.9,73.9,43.0,43.0,43.0,33,33,33,29.83,29.59,0,0,1,0.00
2014-12-8,73.9,73.9,73.9,43.0,43.0,43.0,33,33,33,29.59,29.47,0,0,1,0.00
2014-12-9,73.9,73.9,73.9,43.0,43.0,43.0,33,33,33,29.65,29.47,0,0,1,0.00
2014-12-10,73.9,73.9,73.9,43.0,43.0,43.0,33,33,33,29.65,29.56,0,0,1,0.00
2014-12-11,73.9,73.9,73.9,43.0,43.0,43.0,33,33,33,29.56,29.53,0,0,1,0.00
2014-12-12,35.6,34.5,33.3,28.0,26.1,24.3,75,71,63,29.68,29.65,0,0,1,0.00
2014-12-13,48.9,42.1,33.8,34.4,32.5,26.7,79,69,57,29.65,29.56,0,0,1,0.00
2014-12-14,53.2,48.4,45.3,44.3,39.3,34.2,75,71,64,29.56,29.35,0,0,1,0.00
2014-12-15,57.6,48.6,41.2,52.8,43.4,35.5,86,82,65,29.35,29.06,0,0,1,0.20
2014-12-16,51.8,43.8,37.8,40.0,30.4,24.6,65,59,53,29.59,29.12,0,0,1,0.00
2014-12-17,37.6,36.4,33.8,24.6,21.7,20.8,63,55,51,29.65,29.56,0,0,1,0.00
2014-12-18,37.6,35.1,33.6,29.4,27.0,21.1,80,72,51,29.62,29.50,0,0,1,0.00
2014-12-19,39.9,36.2,34.0,27.1,23.3,20.7,72,60,47,29.62,29.53,0,0,1,0.00
2014-12-20,41.5,34.5,28.0,23.6,21.3,17.0,67,58,45,29.59,29.53,0,0,1,0.00
2014-12-21,49.8,36.9,25.7,28.7,22.7,18.1,76,58,39,29.59,29.26,0,0,1,0.00
2014-12-22,55.8,49.7,39.7,48.6,40.5,24.9,83,71,55,29.26,28.94,0,0,1,0.28
2014-12-23,54.1,50.3,45.3,50.2,46.8,41.7,91,88,83,29.09,28.94,0,0,1,0.00
2014-12-24,45.5,42.8,39.7,42.7,38.7,32.5,91,85,75,29.23,28.91,0,0,1,0.12
2014-12-25,50.7,42.3,38.3,32.5,29.6,24.5,76,61,44,29.47,29.23,0,0,1,0.00
2014-12-26,56.3,45.5,34.3,37.5,31.9,25.9,74,59,47,29.56,29.44,0,0,1,0.00
2014-12-27,51.3,48.2,42.6,46.3,40.8,32.3,88,76,55,29.50,29.38,0,0,1,0.75
2014-12-28,42.6,37.0,34.7,39.1,32.0,25.9,88,82,70,29.53,29.41,0,0,1,0.00
2014-12-29,36.9,34.3,30.2,26.3,23.5,21.6,72,64,57,29.65,29.50,0,0,1,0.00
2014-12-30,38.3,31.3,25.7,22.5,16.9,12.4,71,56,42,29.94,29.65,0,0,1,0.00
2014-12-31,31.3,25.1,21.0,13.6,8.8,5.9,61,50,39,29.94,29.71,0,0,1,0.00
2015-1-1,38.8,32.4,19.9,20.2,15.3,6.7,58,49,41,29.71,29.56,0,0,1,0.00
2015-1-2,42.1,37.9,35.4,37.6,29.2,20.1,84,71,52,29.65,29.38,0,0,1,0.04